createdAt,value
2019-04-20T00:02:04.464Z,12.17
2019-04-20T00:04:33.690Z,11.63
2019-04-20T00:07:01.832Z,11.50
2019-04-20T00:09:36.573Z,11.17
2019-04-20T00:12:12.103Z,12.10
2019-04-20T00:14:37.125Z,12.57
2019-04-20T00:17:05.236Z,12.47
2019-04-20T00:19:40.730Z,12.53
2019-04-20T00:22:14.910Z,13.23
2019-04-20T00:24:55.615Z,13.60
2019-04-20T00:27:42.785Z,13.50
2019-04-20T00:30:06.803Z,13.30
2019-04-20T00:32:42.607Z,12.03
2019-04-20T00:34:57.971Z,12.23
2019-04-20T00:37:27.765Z,12.47
2019-04-20T00:39:57.815Z,11.37
2019-04-20T00:42:33.885Z,12.27
2019-04-20T00:45:07.997Z,12.10
2019-04-20T00:47:44.648Z,10.80
2019-04-20T00:50:19.854Z,11.90
2019-04-20T00:52:51.328Z,11.50
2019-04-20T00:55:04.123Z,12.47
2019-04-20T00:57:41.787Z,12.27
2019-04-20T01:00:21.940Z,11.83
2019-04-20T01:02:49.283Z,12.57
2019-04-20T01:05:36.986Z,13.53
2019-04-20T01:08:02.146Z,13.83
2019-04-20T01:10:40.174Z,14.30
2019-04-20T01:13:10.820Z,13.17
2019-04-20T01:15:46.301Z,12.93
2019-04-20T01:18:05.133Z,13.57
2019-04-20T01:20:34.974Z,12.53
2019-04-20T01:23:10.094Z,13.60
2019-04-20T01:25:40.229Z,13.67
2019-04-20T01:28:24.199Z,13.47
2019-04-20T01:30:43.192Z,14.03
2019-04-20T01:33:22.631Z,13.73
2019-04-20T01:35:57.132Z,13.57
2019-04-20T01:38:26.296Z,12.73
2019-04-20T01:40:44.401Z,14.30
2019-04-20T01:43:14.250Z,13.80
2019-04-20T01:45:44.400Z,14.30
2019-04-20T01:48:22.043Z,14.47
2019-04-20T01:50:55.017Z,14.27
2019-04-20T01:53:39.284Z,15.80
2019-04-20T01:56:07.289Z,15.33
2019-04-20T01:58:50.652Z,13.80
2019-04-20T02:04:29.724Z,15.00
2019-04-20T02:06:59.913Z,16.33
2019-04-20T02:09:30.637Z,16.27
2019-04-20T02:12:06.946Z,16.77
2019-04-20T02:14:40.313Z,16.40
2019-04-20T02:17:30.076Z,16.57
2019-04-20T02:20:12.560Z,16.90
2019-04-20T02:22:45.124Z,16.80
2019-04-20T02:24:55.034Z,17.97
2019-04-20T02:27:31.347Z,20.23
2019-04-20T02:30:21.791Z,22.90
2019-04-20T02:33:07.481Z,23.37
2019-04-20T02:35:56.476Z,26.07
2019-04-20T02:38:23.487Z,26.53
2019-04-20T02:43:52.701Z,27.17
2019-04-20T02:45:51.041Z,27.60
2019-04-20T02:48:29.791Z,26.43
2019-04-20T02:50:58.991Z,26.13
2019-04-20T02:56:03.865Z,27.93
2019-04-20T02:58:38.214Z,28.60
2019-04-20T03:00:58.675Z,30.03
2019-04-20T03:03:19.507Z,30.77
2019-04-20T03:05:46.126Z,31.47
2019-04-20T03:08:22.391Z,32.87
2019-04-20T03:11:11.725Z,31.70
2019-04-20T03:13:32.264Z,31.83
2019-04-20T03:16:02.260Z,30.83
2019-04-20T03:18:33.823Z,28.30
2019-04-20T03:21:09.655Z,27.60
2019-04-20T03:23:44.443Z,26.33
2019-04-20T03:26:12.167Z,26.50
2019-04-20T03:29:05.365Z,26.13
2019-04-20T03:32:15.040Z,25.33
2019-04-20T03:34:47.421Z,25.70
2019-04-20T03:37:01.994Z,24.73
2019-04-20T03:39:25.592Z,25.23
2019-04-20T03:41:40.548Z,26.60
2019-04-20T03:44:10.541Z,27.60
2019-04-20T03:46:43.481Z,27.57
2019-04-20T03:49:35.217Z,29.17
2019-04-20T03:52:02.683Z,28.40
2019-04-20T03:54:30.803Z,27.73
2019-04-20T03:57:24.776Z,28.90
2019-04-20T03:59:55.023Z,28.83
2019-04-20T04:03:00.429Z,27.00
2019-04-20T04:05:25.020Z,27.50
2019-04-20T04:07:45.319Z,27.30
2019-04-20T04:10:24.936Z,27.87
2019-04-20T04:13:09.525Z,26.67
2019-04-20T04:15:46.773Z,27.23
2019-04-20T04:18:19.142Z,26.97
2019-04-20T04:20:50.078Z,25.40
2019-04-20T04:23:32.635Z,25.87
2019-04-20T04:26:05.998Z,22.77
2019-04-20T04:28:31.074Z,23.10
2019-04-20T04:31:08.420Z,22.80
2019-04-20T04:36:04.857Z,22.53
2019-04-20T04:38:43.448Z,20.17
2019-04-20T04:41:19.974Z,20.00
2019-04-20T04:43:44.084Z,20.00
2019-04-20T04:45:57.330Z,20.30
2019-04-20T04:48:34.422Z,18.70
2019-04-20T04:51:07.052Z,19.43
2019-04-20T04:53:44.267Z,17.97
2019-04-20T04:56:07.186Z,17.53
2019-04-20T04:58:34.581Z,16.87
2019-04-20T05:01:08.309Z,16.13
2019-04-20T05:04:04.987Z,15.73
2019-04-20T05:06:29.130Z,17.00
2019-04-20T05:08:48.932Z,15.13
2019-04-20T05:11:15.200Z,15.40
2019-04-20T05:13:54.663Z,15.00
2019-04-20T05:16:38.484Z,14.10
2019-04-20T05:19:13.332Z,15.57
2019-04-20T05:21:58.709Z,15.67
2019-04-20T05:25:04.685Z,15.73
2019-04-20T05:27:39.122Z,16.23
2019-04-20T05:29:52.883Z,15.90
2019-04-20T05:32:33.731Z,15.47
2019-04-20T05:35:15.108Z,15.97
2019-04-20T05:37:51.320Z,16.23
2019-04-20T05:40:16.538Z,14.87
2019-04-20T05:43:04.727Z,14.03
2019-04-20T05:45:32.330Z,14.37
2019-04-20T05:48:04.567Z,13.87
2019-04-20T05:50:37.534Z,14.63
2019-04-20T05:53:11.638Z,14.73
2019-04-20T05:55:40.031Z,15.33
2019-04-20T05:58:12.234Z,15.37
2019-04-20T06:00:47.754Z,14.40
2019-04-20T06:03:10.804Z,14.80
2019-04-20T06:05:55.521Z,13.80
2019-04-20T06:08:26.423Z,13.90
2019-04-20T06:10:49.445Z,13.33
2019-04-20T06:13:30.204Z,13.60
2019-04-20T06:16:15.696Z,13.17
2019-04-20T06:18:42.276Z,13.20
2019-04-20T06:21:35.476Z,12.90
2019-04-20T06:24:02.610Z,13.37
2019-04-20T06:26:47.074Z,14.10
2019-04-20T06:29:18.378Z,11.23
2019-04-20T06:31:57.990Z,10.90
2019-04-20T06:34:33.358Z,9.73
2019-04-20T06:36:57.354Z,9.60
2019-04-20T06:42:10.824Z,9.90
2019-04-20T06:44:37.015Z,9.20
2019-04-20T06:47:16.455Z,9.10
2019-04-20T06:49:51.585Z,8.80
2019-04-20T06:52:33.508Z,10.67
2019-04-20T06:55:03.384Z,10.30
2019-04-20T06:57:40.573Z,7.83
2019-04-20T07:02:46.814Z,9.63
2019-04-20T07:05:28.682Z,9.60
2019-04-20T07:07:47.972Z,10.60
2019-04-20T07:10:18.318Z,9.90
2019-04-20T07:12:40.863Z,10.50
2019-04-20T07:15:17.737Z,10.57
2019-04-20T07:17:57.551Z,10.37
2019-04-20T07:20:42.080Z,11.07
2019-04-20T07:23:18.433Z,7.67
2019-04-20T07:25:39.050Z,10.90
2019-04-20T07:28:14.458Z,9.67
2019-04-20T07:30:42.330Z,9.40
2019-04-20T07:33:12.664Z,9.37
2019-04-20T07:35:40.532Z,7.70
2019-04-20T07:38:27.946Z,9.37
2019-04-20T07:40:44.469Z,9.53
2019-04-20T07:43:07.938Z,8.50
2019-04-20T07:45:45.948Z,8.90
2019-04-20T07:48:29.523Z,8.80
2019-04-20T07:50:41.035Z,7.70
2019-04-20T07:53:18.572Z,8.87
2019-04-20T07:55:55.131Z,8.57
2019-04-20T07:58:17.283Z,8.53
2019-04-20T08:01:15.408Z,9.07
2019-04-20T08:03:38.066Z,8.67
2019-04-20T08:06:14.519Z,9.00
2019-04-20T08:08:53.073Z,9.90
2019-04-20T08:11:22.864Z,9.33
2019-04-20T08:14:05.896Z,7.47
2019-04-20T08:16:40.034Z,6.37
2019-04-20T08:19:01.262Z,8.07
2019-04-20T08:21:38.735Z,7.67
2019-04-20T08:24:07.386Z,7.20
2019-04-20T08:26:27.163Z,8.77
2019-04-20T08:29:01.395Z,8.63
2019-04-20T08:31:47.403Z,9.17
2019-04-20T08:34:33.683Z,6.23
2019-04-20T08:37:03.262Z,6.37
2019-04-20T08:42:18.646Z,7.73
2019-04-20T08:47:12.090Z,8.57
2019-04-20T08:49:43.873Z,8.67
2019-04-20T08:52:31.918Z,9.20
2019-04-20T08:54:40.473Z,8.00
2019-04-20T08:56:58.046Z,7.00
2019-04-20T08:59:25.366Z,6.17
2019-04-20T09:01:58.972Z,6.00
2019-04-20T09:04:38.809Z,5.73
2019-04-20T09:07:05.601Z,5.17
2019-04-20T09:09:49.165Z,5.23
2019-04-20T09:12:14.765Z,5.57
2019-04-20T09:14:34.751Z,5.20
2019-04-20T09:17:10.626Z,5.60
2019-04-20T09:19:53.573Z,5.80
2019-04-20T09:22:45.675Z,5.47
2019-04-20T09:25:42.716Z,5.60
2019-04-20T09:27:46.788Z,5.40
2019-04-20T09:30:25.705Z,5.80
2019-04-20T09:33:06.843Z,5.20
2019-04-20T09:35:37.129Z,5.80
2019-04-20T09:38:11.832Z,5.57
2019-04-20T09:40:46.153Z,5.27
2019-04-20T09:43:25.845Z,6.43
2019-04-20T09:46:00.028Z,5.77
2019-04-20T09:48:34.729Z,5.40
2019-04-20T09:51:20.522Z,5.50
2019-04-20T09:53:39.325Z,6.20
2019-04-20T09:56:15.754Z,5.83
2019-04-20T09:58:55.145Z,6.07
2019-04-20T10:01:18.149Z,6.20
2019-04-20T10:03:35.067Z,6.37
2019-04-20T10:06:05.488Z,6.17
2019-04-20T10:08:42.057Z,6.00
2019-04-20T10:11:07.647Z,5.97
2019-04-20T10:13:38.345Z,6.23
2019-04-20T10:16:08.090Z,6.30
2019-04-20T10:18:41.410Z,5.60
2019-04-20T10:21:10.106Z,6.10
2019-04-20T10:23:40.676Z,5.77
2019-04-20T10:26:10.383Z,6.20
2019-04-20T10:28:39.813Z,6.03
2019-04-20T10:31:10.570Z,6.20
2019-04-20T10:33:40.205Z,6.20
2019-04-20T10:36:19.518Z,6.37
2019-04-20T10:38:48.942Z,6.60
2019-04-20T10:41:29.584Z,5.80
2019-04-20T10:43:51.006Z,6.47
2019-04-20T10:46:20.767Z,5.97
2019-04-20T10:48:53.247Z,6.73
2019-04-20T10:51:21.787Z,6.87
2019-04-20T10:53:52.409Z,6.40
2019-04-20T10:56:23.208Z,6.53
2019-04-20T10:58:53.813Z,6.97
2019-04-20T11:01:23.405Z,7.00
2019-04-20T11:03:52.837Z,6.90
2019-04-20T11:06:22.719Z,6.53
2019-04-20T11:08:52.901Z,6.97
2019-04-20T11:11:26.474Z,6.83
2019-04-20T11:13:53.719Z,6.80
2019-04-20T11:16:24.267Z,6.93
2019-04-20T11:18:53.792Z,6.10
2019-04-20T11:21:24.612Z,7.23
2019-04-20T11:23:56.164Z,6.87
2019-04-20T11:26:26.455Z,6.83
2019-04-20T11:28:56.091Z,6.07
2019-04-20T11:31:32.868Z,5.67
2019-04-20T11:33:56.823Z,6.30
2019-04-20T11:36:27.427Z,6.30
2019-04-20T11:38:56.921Z,5.70
2019-04-20T11:41:29.463Z,5.47
2019-04-20T11:43:57.874Z,5.50
2019-04-20T11:46:27.353Z,5.57
2019-04-20T11:48:57.267Z,5.67
2019-04-20T11:51:27.574Z,5.57
2019-04-20T11:53:58.439Z,6.03
2019-04-20T11:56:33.459Z,5.13
2019-04-20T11:58:59.042Z,5.30
2019-04-20T12:01:59.059Z,5.40
2019-04-20T12:04:40.382Z,5.00
2019-04-20T12:07:01.686Z,5.47
2019-04-20T12:09:33.448Z,5.10
2019-04-20T12:12:16.777Z,5.13
2019-04-20T12:14:34.636Z,5.43
2019-04-20T12:17:04.184Z,5.63
2019-04-20T12:19:36.104Z,5.23
2019-04-20T12:22:05.831Z,5.73
2019-04-20T12:24:36.290Z,5.50
2019-04-20T12:27:07.008Z,5.20
2019-04-20T12:29:36.408Z,5.60
2019-04-20T12:32:08.572Z,5.80
2019-04-20T12:34:37.178Z,5.23
2019-04-20T12:37:07.145Z,5.17
2019-04-20T12:39:37.337Z,5.37
2019-04-20T12:42:09.618Z,5.20
2019-04-20T12:44:39.643Z,5.63
2019-04-20T12:47:28.198Z,4.97
2019-04-20T12:49:57.534Z,5.10
2019-04-20T12:52:28.215Z,5.40
2019-04-20T12:55:01.593Z,5.63
2019-04-20T12:57:30.039Z,4.77
2019-04-20T13:00:01.670Z,5.70
2019-04-20T13:02:31.503Z,5.40
2019-04-20T13:05:01.695Z,5.43
2019-04-20T13:07:41.162Z,4.97
2019-04-20T13:10:04.008Z,5.60
2019-04-20T13:12:56.440Z,5.33
2019-04-20T13:15:38.213Z,5.00
2019-04-20T13:18:09.493Z,4.90
2019-04-20T13:20:39.732Z,5.57
2019-04-20T13:23:10.851Z,5.97
2019-04-20T13:25:41.243Z,6.10
2019-04-20T13:28:10.746Z,5.20
2019-04-20T13:30:40.174Z,5.67
2019-04-20T13:33:12.084Z,5.23
2019-04-20T13:35:41.587Z,5.37
2019-04-20T13:38:12.296Z,5.70
2019-04-20T13:40:43.947Z,5.67
2019-04-20T13:43:14.608Z,5.83
2019-04-20T13:45:44.852Z,5.53
2019-04-20T13:48:15.122Z,6.00
2019-04-20T13:50:44.668Z,5.77
2019-04-20T13:53:14.946Z,5.23
2019-04-20T13:55:45.684Z,5.67
2019-04-20T13:58:33.863Z,5.67
2019-04-20T14:01:22.949Z,5.33
2019-04-20T14:04:05.238Z,5.30
2019-04-20T14:06:35.381Z,6.07
2019-04-20T14:09:09.605Z,6.30
2019-04-20T14:11:39.292Z,6.80
2019-04-20T14:14:08.919Z,6.13
2019-04-20T14:16:41.120Z,6.20
2019-04-20T14:19:11.767Z,6.43
2019-04-20T14:21:41.733Z,7.20
2019-04-20T14:24:13.067Z,6.20
2019-04-20T14:26:44.565Z,6.37
2019-04-20T14:29:14.811Z,5.90
2019-04-20T14:31:45.989Z,6.37
2019-04-20T14:34:15.539Z,6.60
2019-04-20T14:36:46.743Z,6.90
2019-04-20T14:39:16.369Z,6.90
2019-04-20T14:41:46.551Z,7.07
2019-04-20T14:44:16.562Z,6.50
2019-04-20T14:46:45.927Z,6.37
2019-04-20T14:49:16.628Z,5.80
2019-04-20T14:51:46.101Z,6.30
2019-04-20T14:54:17.073Z,6.30
2019-04-20T14:56:47.573Z,6.33
2019-04-20T14:59:31.559Z,6.60
2019-04-20T15:02:06.391Z,6.53
2019-04-20T15:04:37.083Z,6.03
2019-04-20T15:07:06.724Z,5.60
2019-04-20T15:09:38.752Z,6.17
2019-04-20T15:12:08.823Z,5.90
2019-04-20T15:14:38.657Z,5.90
2019-04-20T15:17:12.088Z,5.90
2019-04-20T15:20:01.443Z,6.40
2019-04-20T15:22:41.399Z,6.43
2019-04-20T15:25:11.733Z,7.40
2019-04-20T15:27:44.734Z,6.00
2019-04-20T15:30:14.136Z,6.57
2019-04-20T15:32:44.937Z,6.37
2019-04-20T15:35:17.820Z,5.90
2019-04-20T15:37:46.943Z,6.00
2019-04-20T15:40:17.282Z,6.47
2019-04-20T15:42:56.647Z,6.40
2019-04-20T15:45:19.230Z,6.50
2019-04-20T15:47:49.966Z,6.03
2019-04-20T15:50:20.230Z,6.13
2019-04-20T15:52:54.467Z,6.17
2019-04-20T15:55:29.604Z,6.57
2019-04-20T15:57:53.495Z,6.07
2019-04-20T16:00:24.475Z,6.10
2019-04-20T16:03:05.344Z,5.97
2019-04-20T16:06:01.042Z,5.60
2019-04-20T16:08:36.482Z,5.73
2019-04-20T16:11:06.995Z,5.80
2019-04-20T16:13:40.435Z,6.37
2019-04-20T16:16:09.797Z,5.97
2019-04-20T16:18:40.947Z,6.20
2019-04-20T16:21:17.830Z,6.00
2019-04-20T16:23:50.675Z,5.80
2019-04-20T16:26:44.010Z,6.60
2019-04-20T16:29:15.453Z,6.40
2019-04-20T16:31:47.221Z,6.30
2019-04-20T16:34:16.817Z,6.00
2019-04-20T16:36:46.629Z,5.83
2019-04-20T16:39:16.533Z,6.00
2019-04-20T16:41:46.557Z,5.43
2019-04-20T16:44:17.410Z,6.00
2019-04-20T16:46:48.069Z,5.77
2019-04-20T16:49:17.508Z,5.80
2019-04-20T16:51:47.153Z,6.30
2019-04-20T16:54:17.815Z,5.07
2019-04-20T16:56:48.552Z,5.47
2019-04-20T16:59:20.614Z,5.90
2019-04-20T17:01:49.077Z,5.60
2019-04-20T17:04:22.065Z,6.33
2019-04-20T17:07:08.118Z,5.33
2019-04-20T17:09:37.878Z,5.77
2019-04-20T17:12:07.824Z,5.67
2019-04-20T17:14:37.882Z,5.93
2019-04-20T17:17:07.783Z,4.93
2019-04-20T17:19:37.652Z,5.30
2019-04-20T17:22:09.864Z,5.30
2019-04-20T17:24:43.125Z,5.67
2019-04-20T17:27:33.014Z,5.47
2019-04-20T17:30:22.963Z,5.27
2019-04-20T17:32:52.568Z,6.03
2019-04-20T17:35:37.307Z,5.80
2019-04-20T17:38:14.245Z,6.13
2019-04-20T17:41:01.296Z,5.73
2019-04-20T17:43:25.130Z,5.67
2019-04-20T17:45:54.326Z,5.80
2019-04-20T17:48:33.285Z,6.67
2019-04-20T17:51:10.852Z,6.37
2019-04-20T17:53:47.381Z,6.97
2019-04-20T17:56:10.412Z,6.10
2019-04-20T17:58:41.439Z,5.87
2019-04-20T18:01:59.608Z,6.00
2019-04-20T18:04:50.711Z,6.23
2019-04-20T18:07:04.431Z,6.77
2019-04-20T18:09:44.737Z,5.90
2019-04-20T18:11:58.063Z,5.70
2019-04-20T18:14:43.318Z,6.17
2019-04-20T18:17:34.683Z,5.93
2019-04-20T18:20:00.857Z,6.03
2019-04-20T18:22:31.755Z,5.63
2019-04-20T18:25:19.168Z,5.70
2019-04-20T18:27:56.312Z,5.70
2019-04-20T18:30:18.676Z,5.93
2019-04-20T18:32:38.479Z,6.33
2019-04-20T18:35:16.264Z,6.10
2019-04-20T18:37:52.606Z,5.97
2019-04-20T18:40:29.045Z,6.00
2019-04-20T18:42:59.992Z,6.60
2019-04-20T18:45:33.734Z,6.70
2019-04-20T18:48:14.632Z,7.00
2019-04-20T18:50:31.947Z,6.83
2019-04-20T18:52:53.994Z,6.83
2019-04-20T18:55:37.712Z,7.77
2019-04-20T18:57:55.157Z,7.13
2019-04-20T19:00:31.573Z,7.33
2019-04-20T19:03:01.315Z,6.13
2019-04-20T19:05:29.486Z,6.63
2019-04-20T19:08:03.352Z,6.23
2019-04-20T19:10:34.842Z,6.57
2019-04-20T19:13:09.948Z,6.33
2019-04-20T19:16:03.595Z,6.53
2019-04-20T19:18:57.382Z,6.40
2019-04-20T19:21:13.304Z,6.57
2019-04-20T19:23:53.347Z,6.20
2019-04-20T19:26:19.137Z,6.47
2019-04-20T19:28:52.083Z,6.20
2019-04-20T19:31:35.519Z,6.13
2019-04-20T19:34:09.336Z,5.93
2019-04-20T19:36:28.815Z,6.40
2019-04-20T19:39:08.586Z,6.00
2019-04-20T19:41:32.084Z,6.47
2019-04-20T19:44:06.437Z,6.40
2019-04-20T19:46:49.218Z,6.00
2019-04-20T19:49:08.148Z,6.50
2019-04-20T19:51:49.402Z,5.43
2019-04-20T19:54:24.173Z,6.50
2019-04-20T19:56:48.610Z,6.57
2019-04-20T19:59:11.719Z,6.40
2019-04-20T20:01:35.724Z,6.80
2019-04-20T20:04:09.257Z,7.30
2019-04-20T20:06:45.351Z,6.53
2019-04-20T20:09:12.206Z,7.43
2019-04-20T20:11:42.908Z,6.47
2019-04-20T20:14:13.008Z,6.50
2019-04-20T20:17:00.864Z,6.30
2019-04-20T20:19:30.527Z,6.80
2019-04-20T20:22:00.278Z,7.10
2019-04-20T20:24:17.414Z,7.03
2019-04-20T20:26:52.711Z,6.53
2019-04-20T20:29:26.225Z,7.13
2019-04-20T20:32:02.293Z,6.60
2019-04-20T20:34:26.438Z,6.60
2019-04-20T20:36:55.961Z,6.57
2019-04-20T20:39:28.697Z,6.77
2019-04-20T20:42:01.587Z,6.60
2019-04-20T20:44:33.013Z,6.37
2019-04-20T20:47:05.546Z,6.30
2019-04-20T20:49:48.529Z,6.77
2019-04-20T20:52:17.400Z,6.20
2019-04-20T20:54:41.179Z,6.40
2019-04-20T20:57:05.643Z,6.20
2019-04-20T20:59:40.237Z,7.20
2019-04-20T21:02:08.838Z,6.43
2019-04-20T21:04:33.493Z,6.87
2019-04-20T21:07:02.916Z,7.07
2019-04-20T21:09:33.448Z,7.73
2019-04-20T21:12:08.480Z,6.87
2019-04-20T21:14:38.416Z,6.87
2019-04-20T21:17:13.184Z,6.63
2019-04-20T21:19:55.003Z,6.73
2019-04-20T21:22:15.075Z,6.90
2019-04-20T21:24:42.063Z,6.03
2019-04-20T21:27:15.282Z,6.30
2019-04-20T21:29:47.288Z,6.73
2019-04-20T21:32:16.543Z,6.67
2019-04-20T21:34:51.859Z,6.47
2019-04-20T21:37:22.337Z,6.40
2019-04-20T21:39:55.607Z,6.27
2019-04-20T21:42:22.677Z,7.10
2019-04-20T21:44:52.307Z,6.57
2019-04-20T21:47:27.466Z,7.07
2019-04-20T21:50:09.573Z,6.13
2019-04-20T21:52:32.342Z,6.63
2019-04-20T21:54:56.188Z,6.20
2019-04-20T21:57:26.222Z,6.23
2019-04-20T22:00:02.576Z,6.40
2019-04-20T22:02:32.832Z,6.33
2019-04-20T22:04:59.180Z,6.53
2019-04-20T22:07:28.560Z,6.97
2019-04-20T22:09:58.506Z,6.67
2019-04-20T22:12:37.585Z,6.63
2019-04-20T22:15:06.631Z,7.10
2019-04-20T22:17:33.047Z,7.60
2019-04-20T22:20:14.418Z,6.87
2019-04-20T22:22:50.807Z,7.23
2019-04-20T22:25:23.055Z,6.83
2019-04-20T22:27:36.705Z,6.60
2019-04-20T22:30:08.091Z,7.17
2019-04-20T22:32:45.016Z,6.73
2019-04-20T22:35:12.525Z,6.20
2019-04-20T22:37:47.679Z,7.00
2019-04-20T22:40:22.068Z,6.80
2019-04-20T22:42:54.319Z,6.77
2019-04-20T22:45:21.148Z,6.87
2019-04-20T22:47:52.967Z,7.40
2019-04-20T22:50:34.028Z,6.57
2019-04-20T22:53:06.751Z,7.00
2019-04-20T22:55:47.804Z,6.77
2019-04-20T22:58:03.269Z,8.57
2019-04-20T23:00:36.435Z,7.93
2019-04-20T23:02:58.804Z,7.67
2019-04-20T23:05:28.855Z,7.80
2019-04-20T23:07:58.957Z,7.47
2019-04-20T23:10:34.842Z,7.97
2019-04-20T23:12:59.807Z,8.00
2019-04-20T23:15:30.558Z,8.07
2019-04-20T23:18:00.127Z,8.67
2019-04-20T23:20:32.633Z,8.33
2019-04-20T23:23:00.878Z,8.70
2019-04-20T23:25:33.359Z,8.97
2019-04-20T23:28:09.869Z,8.93
2019-04-20T23:30:38.869Z,9.70
2019-04-20T23:33:05.803Z,9.60
2019-04-20T23:35:37.574Z,9.43
2019-04-20T23:38:11.025Z,10.30
2019-04-20T23:40:37.542Z,9.87
2019-04-20T23:43:22.916Z,9.73
2019-04-20T23:46:03.404Z,10.23
2019-04-20T23:48:42.715Z,10.50
2019-04-20T23:51:35.287Z,11.40
2019-04-20T23:53:53.952Z,10.93
2019-04-20T23:56:16.765Z,11.60
2019-04-20T23:58:49.572Z,11.10
